sensor_id;sensor_type;location;lat;lon;timestamp;temperature;humidity
23719;DHT22;43322;52.230;5.702;2023-09-18T00:02:08;18.10;99.90
23719;DHT22;43322;52.230;5.702;2023-09-18T00:04:35;18.50;99.90
23719;DHT22;43322;52.230;5.702;2023-09-18T00:07:04;18.00;99.90
23719;DHT22;43322;52.230;5.702;2023-09-18T00:09:31;17.90;99.90
23719;DHT22;43322;52.230;5.702;2023-09-18T00:11:57;17.90;99.90
23719;DHT22;43322;52.230;5.702;2023-09-18T00:14:24;17.80;99.90
23719;DHT22;43322;52.230;5.702;2023-09-18T00:16:51;17.90;99.90
23719;DHT22;43322;52.230;5.702;2023-09-18T00:19:18;17.90;99.90
23719;DHT22;43322;52.230;5.702;2023-09-18T00:21:45;17.90;99.90
23719;DHT22;43322;52.230;5.702;2023-09-18T00:24:12;17.90;99.90
23719;DHT22;43322;52.230;5.702;2023-09-18T00:26:39;17.90;99.90
23719;DHT22;43322;52.230;5.702;2023-09-18T00:29:06;17.90;99.90
23719;DHT22;43322;52.230;5.702;2023-09-18T00:31:32;18.00;99.90
23719;DHT22;43322;52.230;5.702;2023-09-18T00:33:59;18.00;99.90
23719;DHT22;43322;52.230;5.702;2023-09-18T00:36:25;18.00;99.90
23719;DHT22;43322;52.230;5.702;2023-09-18T00:38:52;18.00;99.90
23719;DHT22;43322;52.230;5.702;2023-09-18T00:41:20;18.00;99.90
23719;DHT22;43322;52.230;5.702;2023-09-18T00:43:47;18.10;99.90
23719;DHT22;43322;52.230;5.702;2023-09-18T00:46:13;18.10;99.90
23719;DHT22;43322;52.230;5.702;2023-09-18T00:48:40;18.10;99.90
23719;DHT22;43322;52.230;5.702;2023-09-18T00:51:08;18.10;99.90
23719;DHT22;43322;52.230;5.702;2023-09-18T00:53:37;18.10;99.90
23719;DHT22;43322;52.230;5.702;2023-09-18T00:56:04;18.10;99.90
23719;DHT22;43322;52.230;5.702;2023-09-18T00:58:33;18.10;99.90
23719;DHT22;43322;52.230;5.702;2023-09-18T01:01:00;18.10;99.90
23719;DHT22;43322;52.230;5.702;2023-09-18T01:03:27;18.10;99.90
23719;DHT22;43322;52.230;5.702;2023-09-18T01:05:54;18.10;99.90
23719;DHT22;43322;52.230;5.702;2023-09-18T01:08:21;18.10;99.90
23719;DHT22;43322;52.230;5.702;2023-09-18T01:10:53;18.10;99.90
23719;DHT22;43322;52.230;5.702;2023-09-18T01:13:25;18.10;99.90
23719;DHT22;43322;52.230;5.702;2023-09-18T01:16:07;18.10;99.90
23719;DHT22;43322;52.230;5.702;2023-09-18T01:18:35;18.10;99.90
23719;DHT22;43322;52.230;5.702;2023-09-18T01:21:01;18.10;99.90
23719;DHT22;43322;52.230;5.702;2023-09-18T01:23:29;18.10;99.90
23719;DHT22;43322;52.230;5.702;2023-09-18T01:25:56;18.10;99.90
23719;DHT22;43322;52.230;5.702;2023-09-18T01:28:23;18.10;99.90
23719;DHT22;43322;52.230;5.702;2023-09-18T01:30:49;18.10;99.90
23719;DHT22;43322;52.230;5.702;2023-09-18T01:33:17;18.10;99.90
23719;DHT22;43322;52.230;5.702;2023-09-18T01:35:45;18.10;99.90
23719;DHT22;43322;52.230;5.702;2023-09-18T01:38:12;18.10;99.90
23719;DHT22;43322;52.230;5.702;2023-09-18T01:40:41;18.10;99.90
23719;DHT22;43322;52.230;5.702;2023-09-18T01:43:08;18.10;99.90
23719;DHT22;43322;52.230;5.702;2023-09-18T01:45:36;18.10;99.90
23719;DHT22;43322;52.230;5.702;2023-09-18T01:48:04;18.10;99.90
23719;DHT22;43322;52.230;5.702;2023-09-18T01:50:31;18.20;99.90
23719;DHT22;43322;52.230;5.702;2023-09-18T01:52:58;18.10;99.90
23719;DHT22;43322;52.230;5.702;2023-09-18T01:55:25;18.10;99.90
23719;DHT22;43322;52.230;5.702;2023-09-18T01:57:55;18.10;99.90
23719;DHT22;43322;52.230;5.702;2023-09-18T02:00:21;18.20;99.90
23719;DHT22;43322;52.230;5.702;2023-09-18T02:02:48;18.20;99.90
23719;DHT22;43322;52.230;5.702;2023-09-18T02:05:15;18.10;99.90
23719;DHT22;43322;52.230;5.702;2023-09-18T02:07:41;18.10;99.90
23719;DHT22;43322;52.230;5.702;2023-09-18T02:10:09;18.10;99.90
23719;DHT22;43322;52.230;5.702;2023-09-18T02:12:38;18.10;99.90
23719;DHT22;43322;52.230;5.702;2023-09-18T02:15:07;18.10;99.90
23719;DHT22;43322;52.230;5.702;2023-09-18T02:17:35;18.10;99.90
23719;DHT22;43322;52.230;5.702;2023-09-18T02:20:03;18.10;99.90
23719;DHT22;43322;52.230;5.702;2023-09-18T02:22:36;18.10;99.90
23719;DHT22;43322;52.230;5.702;2023-09-18T02:25:04;18.10;99.90
23719;DHT22;43322;52.230;5.702;2023-09-18T02:27:31;18.10;99.90
23719;DHT22;43322;52.230;5.702;2023-09-18T02:29:57;18.20;99.90
23719;DHT22;43322;52.230;5.702;2023-09-18T02:32:25;18.20;99.90
23719;DHT22;43322;52.230;5.702;2023-09-18T02:34:53;18.20;99.90
23719;DHT22;43322;52.230;5.702;2023-09-18T02:37:19;18.20;99.90
23719;DHT22;43322;52.230;5.702;2023-09-18T02:39:46;18.20;99.90
23719;DHT22;43322;52.230;5.702;2023-09-18T02:42:12;18.30;99.90
23719;DHT22;43322;52.230;5.702;2023-09-18T02:44:39;18.30;99.90
23719;DHT22;43322;52.230;5.702;2023-09-18T02:47:06;18.30;99.90
23719;DHT22;43322;52.230;5.702;2023-09-18T02:49:34;18.40;99.90
23719;DHT22;43322;52.230;5.702;2023-09-18T02:52:00;18.40;99.90
23719;DHT22;43322;52.230;5.702;2023-09-18T02:54:28;18.40;99.90
23719;DHT22;43322;52.230;5.702;2023-09-18T02:56:55;18.30;99.90
23719;DHT22;43322;52.230;5.702;2023-09-18T02:59:21;18.40;99.90
23719;DHT22;43322;52.230;5.702;2023-09-18T03:01:49;18.30;99.90
23719;DHT22;43322;52.230;5.702;2023-09-18T03:04:15;18.30;99.90
23719;DHT22;43322;52.230;5.702;2023-09-18T03:06:43;18.30;99.90
23719;DHT22;43322;52.230;5.702;2023-09-18T03:09:10;18.40;99.90
23719;DHT22;43322;52.230;5.702;2023-09-18T03:11:37;18.40;99.90
23719;DHT22;43322;52.230;5.702;2023-09-18T03:14:04;18.40;99.90
23719;DHT22;43322;52.230;5.702;2023-09-18T03:16:30;18.30;99.90
23719;DHT22;43322;52.230;5.702;2023-09-18T03:18:58;18.30;99.90
23719;DHT22;43322;52.230;5.702;2023-09-18T03:21:25;18.30;99.90
23719;DHT22;43322;52.230;5.702;2023-09-18T03:23:53;18.30;99.90
23719;DHT22;43322;52.230;5.702;2023-09-18T03:26:20;18.30;99.90
23719;DHT22;43322;52.230;5.702;2023-09-18T03:28:46;18.30;99.90
23719;DHT22;43322;52.230;5.702;2023-09-18T03:31:13;18.30;99.90
23719;DHT22;43322;52.230;5.702;2023-09-18T03:33:39;18.30;99.90
23719;DHT22;43322;52.230;5.702;2023-09-18T03:36:06;18.30;99.90
23719;DHT22;43322;52.230;5.702;2023-09-18T03:38:33;18.40;99.90
23719;DHT22;43322;52.230;5.702;2023-09-18T03:41:02;18.40;99.90
23719;DHT22;43322;52.230;5.702;2023-09-18T03:43:29;18.40;99.90
23719;DHT22;43322;52.230;5.702;2023-09-18T03:46:02;18.40;99.90
23719;DHT22;43322;52.230;5.702;2023-09-18T03:48:29;18.40;99.90
23719;DHT22;43322;52.230;5.702;2023-09-18T03:51:01;18.40;99.90
23719;DHT22;43322;52.230;5.702;2023-09-18T03:53:28;18.40;99.90
23719;DHT22;43322;52.230;5.702;2023-09-18T03:55:54;18.40;99.90
23719;DHT22;43322;52.230;5.702;2023-09-18T03:58:22;18.40;99.90
23719;DHT22;43322;52.230;5.702;2023-09-18T04:00:49;18.50;99.90
23719;DHT22;43322;52.230;5.702;2023-09-18T04:03:16;18.50;99.90
23719;DHT22;43322;52.230;5.702;2023-09-18T04:05:43;18.50;99.90
23719;DHT22;43322;52.230;5.702;2023-09-18T04:08:10;18.50;99.90
23719;DHT22;43322;52.230;5.702;2023-09-18T04:10:38;18.50;99.90
23719;DHT22;43322;52.230;5.702;2023-09-18T04:13:05;18.50;99.90
23719;DHT22;43322;52.230;5.702;2023-09-18T04:15:33;18.60;99.90
23719;DHT22;43322;52.230;5.702;2023-09-18T04:18:03;18.60;99.90
23719;DHT22;43322;52.230;5.702;2023-09-18T04:20:30;18.50;99.90
23719;DHT22;43322;52.230;5.702;2023-09-18T04:23:19;18.50;99.90
23719;DHT22;43322;52.230;5.702;2023-09-18T04:25:45;18.50;99.90
23719;DHT22;43322;52.230;5.702;2023-09-18T04:28:12;18.40;99.90
23719;DHT22;43322;52.230;5.702;2023-09-18T04:30:40;18.40;99.90
23719;DHT22;43322;52.230;5.702;2023-09-18T04:33:07;18.40;99.90
23719;DHT22;43322;52.230;5.702;2023-09-18T04:35:34;18.50;99.90
23719;DHT22;43322;52.230;5.702;2023-09-18T04:38:00;18.50;99.90
23719;DHT22;43322;52.230;5.702;2023-09-18T04:40:27;18.50;99.90
23719;DHT22;43322;52.230;5.702;2023-09-18T04:42:57;18.50;99.90
23719;DHT22;43322;52.230;5.702;2023-09-18T04:45:24;18.50;99.90
23719;DHT22;43322;52.230;5.702;2023-09-18T04:47:52;18.50;99.90
23719;DHT22;43322;52.230;5.702;2023-09-18T04:50:19;18.40;99.90
23719;DHT22;43322;52.230;5.702;2023-09-18T04:52:46;18.40;99.90
23719;DHT22;43322;52.230;5.702;2023-09-18T04:55:13;18.40;99.90
23719;DHT22;43322;52.230;5.702;2023-09-18T04:57:40;18.40;99.90
23719;DHT22;43322;52.230;5.702;2023-09-18T05:00:07;18.50;99.90
23719;DHT22;43322;52.230;5.702;2023-09-18T05:02:38;18.50;99.90
23719;DHT22;43322;52.230;5.702;2023-09-18T05:05:06;18.50;99.90
23719;DHT22;43322;52.230;5.702;2023-09-18T05:07:34;18.50;99.90
23719;DHT22;43322;52.230;5.702;2023-09-18T05:10:02;18.50;99.90
23719;DHT22;43322;52.230;5.702;2023-09-18T05:12:30;18.60;99.90
23719;DHT22;43322;52.230;5.702;2023-09-18T05:14:57;18.50;99.90
23719;DHT22;43322;52.230;5.702;2023-09-18T05:17:39;18.60;99.90
23719;DHT22;43322;52.230;5.702;2023-09-18T05:20:10;18.60;99.90
23719;DHT22;43322;52.230;5.702;2023-09-18T05:22:38;18.60;99.90
23719;DHT22;43322;52.230;5.702;2023-09-18T05:25:05;18.70;99.90
23719;DHT22;43322;52.230;5.702;2023-09-18T05:27:32;18.80;99.90
23719;DHT22;43322;52.230;5.702;2023-09-18T05:29:59;18.80;99.90
23719;DHT22;43322;52.230;5.702;2023-09-18T05:32:25;18.90;99.90
23719;DHT22;43322;52.230;5.702;2023-09-18T05:34:52;18.90;99.90
23719;DHT22;43322;52.230;5.702;2023-09-18T05:37:20;18.90;99.90
23719;DHT22;43322;52.230;5.702;2023-09-18T05:39:47;18.80;99.90
23719;DHT22;43322;52.230;5.702;2023-09-18T05:42:14;18.80;99.90
23719;DHT22;43322;52.230;5.702;2023-09-18T05:44:41;18.80;99.90
23719;DHT22;43322;52.230;5.702;2023-09-18T05:47:08;18.80;99.90
23719;DHT22;43322;52.230;5.702;2023-09-18T05:49:35;18.80;99.90
23719;DHT22;43322;52.230;5.702;2023-09-18T05:52:01;18.80;99.90
23719;DHT22;43322;52.230;5.702;2023-09-18T05:54:29;18.70;99.90
23719;DHT22;43322;52.230;5.702;2023-09-18T05:56:56;18.70;99.90
23719;DHT22;43322;52.230;5.702;2023-09-18T05:59:23;18.70;99.90
23719;DHT22;43322;52.230;5.702;2023-09-18T06:01:49;18.60;99.90
23719;DHT22;43322;52.230;5.702;2023-09-18T06:04:16;18.60;99.90
23719;DHT22;43322;52.230;5.702;2023-09-18T06:06:43;18.50;99.90
23719;DHT22;43322;52.230;5.702;2023-09-18T06:09:09;18.50;99.90
23719;DHT22;43322;52.230;5.702;2023-09-18T06:11:37;18.50;99.90
23719;DHT22;43322;52.230;5.702;2023-09-18T06:14:04;18.50;99.90
23719;DHT22;43322;52.230;5.702;2023-09-18T06:16:31;18.40;99.90
23719;DHT22;43322;52.230;5.702;2023-09-18T06:18:57;18.40;99.90
23719;DHT22;43322;52.230;5.702;2023-09-18T06:21:25;18.50;99.90
23719;DHT22;43322;52.230;5.702;2023-09-18T06:23:52;18.50;99.90
23719;DHT22;43322;52.230;5.702;2023-09-18T06:26:19;18.50;99.90
23719;DHT22;43322;52.230;5.702;2023-09-18T06:28:48;18.50;99.90
23719;DHT22;43322;52.230;5.702;2023-09-18T06:31:15;18.70;99.90
23719;DHT22;43322;52.230;5.702;2023-09-18T06:33:41;18.60;99.90
23719;DHT22;43322;52.230;5.702;2023-09-18T06:36:08;18.70;99.90
23719;DHT22;43322;52.230;5.702;2023-09-18T06:38:35;18.80;99.90
23719;DHT22;43322;52.230;5.702;2023-09-18T06:41:02;18.90;99.90
23719;DHT22;43322;52.230;5.702;2023-09-18T06:43:29;18.90;99.90
23719;DHT22;43322;52.230;5.702;2023-09-18T06:45:57;18.90;99.90
23719;DHT22;43322;52.230;5.702;2023-09-18T06:48:24;18.80;99.90
23719;DHT22;43322;52.230;5.702;2023-09-18T06:50:50;18.90;99.90
23719;DHT22;43322;52.230;5.702;2023-09-18T06:53:17;18.90;99.90
23719;DHT22;43322;52.230;5.702;2023-09-18T06:55:44;19.00;99.90
23719;DHT22;43322;52.230;5.702;2023-09-18T06:58:10;18.90;99.90
23719;DHT22;43322;52.230;5.702;2023-09-18T07:00:37;18.90;99.90
23719;DHT22;43322;52.230;5.702;2023-09-18T07:03:06;18.90;99.90
23719;DHT22;43322;52.230;5.702;2023-09-18T07:05:35;19.00;99.90
23719;DHT22;43322;52.230;5.702;2023-09-18T07:08:02;18.90;99.90
23719;DHT22;43322;52.230;5.702;2023-09-18T07:10:30;18.90;99.90
23719;DHT22;43322;52.230;5.702;2023-09-18T07:12:58;19.00;99.90
23719;DHT22;43322;52.230;5.702;2023-09-18T07:15:25;19.00;99.90
23719;DHT22;43322;52.230;5.702;2023-09-18T07:17:51;19.00;99.90
23719;DHT22;43322;52.230;5.702;2023-09-18T07:20:19;19.10;99.90
23719;DHT22;43322;52.230;5.702;2023-09-18T07:22:48;19.10;99.90
23719;DHT22;43322;52.230;5.702;2023-09-18T07:25:16;19.20;99.90
23719;DHT22;43322;52.230;5.702;2023-09-18T07:27:42;19.20;99.90
23719;DHT22;43322;52.230;5.702;2023-09-18T07:30:10;19.20;99.90
23719;DHT22;43322;52.230;5.702;2023-09-18T07:32:39;19.20;99.90
23719;DHT22;43322;52.230;5.702;2023-09-18T07:35:08;19.20;99.90
23719;DHT22;43322;52.230;5.702;2023-09-18T07:37:36;19.30;99.90
23719;DHT22;43322;52.230;5.702;2023-09-18T07:40:04;19.30;99.90
23719;DHT22;43322;52.230;5.702;2023-09-18T07:42:31;19.30;99.90
23719;DHT22;43322;52.230;5.702;2023-09-18T07:44:57;19.30;99.90
23719;DHT22;43322;52.230;5.702;2023-09-18T07:47:24;19.40;99.90
23719;DHT22;43322;52.230;5.702;2023-09-18T07:49:51;19.30;99.90
23719;DHT22;43322;52.230;5.702;2023-09-18T07:52:19;19.30;99.90
23719;DHT22;43322;52.230;5.702;2023-09-18T07:54:47;19.40;99.90
23719;DHT22;43322;52.230;5.702;2023-09-18T07:57:15;19.40;99.90
23719;DHT22;43322;52.230;5.702;2023-09-18T07:59:42;19.40;99.90
23719;DHT22;43322;52.230;5.702;2023-09-18T08:02:09;19.40;99.90
23719;DHT22;43322;52.230;5.702;2023-09-18T08:04:37;19.50;99.90
23719;DHT22;43322;52.230;5.702;2023-09-18T08:07:04;19.50;99.90
23719;DHT22;43322;52.230;5.702;2023-09-18T08:09:32;19.50;99.90
23719;DHT22;43322;52.230;5.702;2023-09-18T08:12:03;19.50;99.90
23719;DHT22;43322;52.230;5.702;2023-09-18T08:14:30;19.50;99.90
23719;DHT22;43322;52.230;5.702;2023-09-18T08:16:57;19.60;99.90
23719;DHT22;43322;52.230;5.702;2023-09-18T08:19:24;19.60;99.90
23719;DHT22;43322;52.230;5.702;2023-09-18T08:21:53;19.70;99.90
23719;DHT22;43322;52.230;5.702;2023-09-18T08:24:19;19.70;99.90
23719;DHT22;43322;52.230;5.702;2023-09-18T08:26:46;19.80;99.90
23719;DHT22;43322;52.230;5.702;2023-09-18T08:29:14;19.80;99.90
23719;DHT22;43322;52.230;5.702;2023-09-18T08:31:41;19.80;99.90
23719;DHT22;43322;52.230;5.702;2023-09-18T08:34:08;19.80;99.90
23719;DHT22;43322;52.230;5.702;2023-09-18T08:36:35;19.80;99.90
23719;DHT22;43322;52.230;5.702;2023-09-18T08:39:01;19.80;99.90
23719;DHT22;43322;52.230;5.702;2023-09-18T08:41:32;19.80;99.90
23719;DHT22;43322;52.230;5.702;2023-09-18T08:44:00;19.80;99.90
23719;DHT22;43322;52.230;5.702;2023-09-18T08:46:30;19.80;99.90
23719;DHT22;43322;52.230;5.702;2023-09-18T08:48:57;19.80;99.90
23719;DHT22;43322;52.230;5.702;2023-09-18T08:51:26;19.90;99.90
23719;DHT22;43322;52.230;5.702;2023-09-18T08:53:54;20.00;99.90
23719;DHT22;43322;52.230;5.702;2023-09-18T08:56:21;20.00;99.90
23719;DHT22;43322;52.230;5.702;2023-09-18T08:58:49;20.10;99.90
23719;DHT22;43322;52.230;5.702;2023-09-18T09:01:16;20.10;99.90
23719;DHT22;43322;52.230;5.702;2023-09-18T09:03:44;20.20;99.90
23719;DHT22;43322;52.230;5.702;2023-09-18T09:06:12;20.20;99.90
23719;DHT22;43322;52.230;5.702;2023-09-18T09:08:39;20.20;99.90
23719;DHT22;43322;52.230;5.702;2023-09-18T09:11:06;20.20;99.90
23719;DHT22;43322;52.230;5.702;2023-09-18T09:13:32;20.20;99.90
23719;DHT22;43322;52.230;5.702;2023-09-18T09:16:00;20.10;99.90
23719;DHT22;43322;52.230;5.702;2023-09-18T09:18:28;20.20;99.90
23719;DHT22;43322;52.230;5.702;2023-09-18T09:21:00;20.10;99.90
23719;DHT22;43322;52.230;5.702;2023-09-18T09:23:29;20.00;99.90
23719;DHT22;43322;52.230;5.702;2023-09-18T09:26:12;20.00;99.90
23719;DHT22;43322;52.230;5.702;2023-09-18T09:28:39;20.00;99.90
23719;DHT22;43322;52.230;5.702;2023-09-18T09:31:08;20.10;99.90
23719;DHT22;43322;52.230;5.702;2023-09-18T09:33:36;20.00;99.90
23719;DHT22;43322;52.230;5.702;2023-09-18T09:36:05;20.00;99.90
23719;DHT22;43322;52.230;5.702;2023-09-18T09:38:33;20.00;99.90
23719;DHT22;43322;52.230;5.702;2023-09-18T09:41:00;20.10;99.90
23719;DHT22;43322;52.230;5.702;2023-09-18T09:43:29;20.10;99.90
23719;DHT22;43322;52.230;5.702;2023-09-18T09:45:58;20.20;99.90
23719;DHT22;43322;52.230;5.702;2023-09-18T09:48:27;20.30;99.90
23719;DHT22;43322;52.230;5.702;2023-09-18T09:50:58;20.50;99.90
23719;DHT22;43322;52.230;5.702;2023-09-18T09:53:46;20.50;99.90
23719;DHT22;43322;52.230;5.702;2023-09-18T09:56:14;20.50;99.90
23719;DHT22;43322;52.230;5.702;2023-09-18T09:59:00;20.50;99.90
23719;DHT22;43322;52.230;5.702;2023-09-18T10:01:27;20.50;99.90
23719;DHT22;43322;52.230;5.702;2023-09-18T10:03:55;20.50;99.90
23719;DHT22;43322;52.230;5.702;2023-09-18T10:06:23;20.60;99.90
23719;DHT22;43322;52.230;5.702;2023-09-18T10:08:52;20.50;99.90
23719;DHT22;43322;52.230;5.702;2023-09-18T10:11:21;20.40;99.90
23719;DHT22;43322;52.230;5.702;2023-09-18T10:13:55;20.40;99.90
23719;DHT22;43322;52.230;5.702;2023-09-18T10:16:23;20.20;99.90
23719;DHT22;43322;52.230;5.702;2023-09-18T10:18:59;20.10;99.90
23719;DHT22;43322;52.230;5.702;2023-09-18T10:21:35;20.10;99.90
23719;DHT22;43322;52.230;5.702;2023-09-18T10:24:14;20.10;99.90
23719;DHT22;43322;52.230;5.702;2023-09-18T10:26:50;20.20;99.90
23719;DHT22;43322;52.230;5.702;2023-09-18T10:29:19;20.50;99.90
23719;DHT22;43322;52.230;5.702;2023-09-18T10:31:47;20.40;99.90
23719;DHT22;43322;52.230;5.702;2023-09-18T10:34:15;20.30;99.90
23719;DHT22;43322;52.230;5.702;2023-09-18T10:36:43;20.30;99.90
23719;DHT22;43322;52.230;5.702;2023-09-18T10:39:11;20.20;99.90
23719;DHT22;43322;52.230;5.702;2023-09-18T10:41:38;20.10;99.90
23719;DHT22;43322;52.230;5.702;2023-09-18T10:44:07;20.20;99.90
23719;DHT22;43322;52.230;5.702;2023-09-18T10:46:34;20.40;99.90
23719;DHT22;43322;52.230;5.702;2023-09-18T10:49:01;20.70;99.90
23719;DHT22;43322;52.230;5.702;2023-09-18T10:51:29;21.30;99.90
23719;DHT22;43322;52.230;5.702;2023-09-18T10:53:58;21.40;99.90
23719;DHT22;43322;52.230;5.702;2023-09-18T10:56:26;22.10;99.90
23719;DHT22;43322;52.230;5.702;2023-09-18T10:58:57;22.80;99.90
23719;DHT22;43322;52.230;5.702;2023-09-18T11:01:24;23.60;99.90
23719;DHT22;43322;52.230;5.702;2023-09-18T11:03:52;24.10;99.90
23719;DHT22;43322;52.230;5.702;2023-09-18T11:06:19;23.80;99.90
23719;DHT22;43322;52.230;5.702;2023-09-18T11:08:56;23.20;99.90
23719;DHT22;43322;52.230;5.702;2023-09-18T11:11:28;22.50;99.90
23719;DHT22;43322;52.230;5.702;2023-09-18T11:13:56;22.10;99.90
23719;DHT22;43322;52.230;5.702;2023-09-18T11:16:36;21.70;99.90
23719;DHT22;43322;52.230;5.702;2023-09-18T11:19:08;21.30;99.90
23719;DHT22;43322;52.230;5.702;2023-09-18T11:21:36;21.30;99.90
23719;DHT22;43322;52.230;5.702;2023-09-18T11:24:04;21.20;99.90
23719;DHT22;43322;52.230;5.702;2023-09-18T11:26:34;21.30;99.90
23719;DHT22;43322;52.230;5.702;2023-09-18T11:29:01;21.70;99.90
23719;DHT22;43322;52.230;5.702;2023-09-18T11:31:41;22.00;99.90
23719;DHT22;43322;52.230;5.702;2023-09-18T11:34:13;22.40;99.90
23719;DHT22;43322;52.230;5.702;2023-09-18T11:36:40;22.20;99.90
23719;DHT22;43322;52.230;5.702;2023-09-18T11:39:07;22.50;99.90
23719;DHT22;43322;52.230;5.702;2023-09-18T11:41:36;22.40;99.90
23719;DHT22;43322;52.230;5.702;2023-09-18T11:44:32;22.30;99.90
23719;DHT22;43322;52.230;5.702;2023-09-18T11:47:00;22.60;99.90
23719;DHT22;43322;52.230;5.702;2023-09-18T11:49:29;22.40;99.90
23719;DHT22;43322;52.230;5.702;2023-09-18T11:51:58;22.20;99.90
23719;DHT22;43322;52.230;5.702;2023-09-18T11:54:27;22.00;99.90
23719;DHT22;43322;52.230;5.702;2023-09-18T11:56:55;21.70;99.90
23719;DHT22;43322;52.230;5.702;2023-09-18T11:59:37;21.70;99.90
23719;DHT22;43322;52.230;5.702;2023-09-18T12:02:04;21.90;99.90
23719;DHT22;43322;52.230;5.702;2023-09-18T12:04:33;22.10;99.90
23719;DHT22;43322;52.230;5.702;2023-09-18T12:07:00;22.10;99.90
23719;DHT22;43322;52.230;5.702;2023-09-18T12:09:29;21.80;99.90
23719;DHT22;43322;52.230;5.702;2023-09-18T12:11:58;22.30;99.90
23719;DHT22;43322;52.230;5.702;2023-09-18T12:14:30;23.60;99.90
23719;DHT22;43322;52.230;5.702;2023-09-18T12:16:57;23.90;99.90
23719;DHT22;43322;52.230;5.702;2023-09-18T12:19:23;23.50;99.90
23719;DHT22;43322;52.230;5.702;2023-09-18T12:21:51;23.20;99.90
23719;DHT22;43322;52.230;5.702;2023-09-18T12:24:21;22.80;99.90
23719;DHT22;43322;52.230;5.702;2023-09-18T12:26:48;23.10;99.90
23719;DHT22;43322;52.230;5.702;2023-09-18T12:29:16;23.30;99.90
23719;DHT22;43322;52.230;5.702;2023-09-18T12:31:43;24.20;99.90
23719;DHT22;43322;52.230;5.702;2023-09-18T12:34:14;24.10;99.90
23719;DHT22;43322;52.230;5.702;2023-09-18T12:36:42;23.60;99.90
23719;DHT22;43322;52.230;5.702;2023-09-18T12:39:09;23.60;99.90
23719;DHT22;43322;52.230;5.702;2023-09-18T12:41:37;23.40;99.90
23719;DHT22;43322;52.230;5.702;2023-09-18T12:44:05;23.40;99.90
23719;DHT22;43322;52.230;5.702;2023-09-18T12:46:34;23.30;99.90
23719;DHT22;43322;52.230;5.702;2023-09-18T12:49:15;24.00;99.90
23719;DHT22;43322;52.230;5.702;2023-09-18T12:51:42;24.20;99.90
23719;DHT22;43322;52.230;5.702;2023-09-18T12:54:09;23.50;99.90
23719;DHT22;43322;52.230;5.702;2023-09-18T12:56:41;23.90;99.90
23719;DHT22;43322;52.230;5.702;2023-09-18T12:59:09;24.20;99.90
23719;DHT22;43322;52.230;5.702;2023-09-18T13:01:37;24.40;99.90
23719;DHT22;43322;52.230;5.702;2023-09-18T13:04:04;24.30;99.90
23719;DHT22;43322;52.230;5.702;2023-09-18T13:06:31;24.30;99.90
23719;DHT22;43322;52.230;5.702;2023-09-18T13:09:16;24.70;99.90
23719;DHT22;43322;52.230;5.702;2023-09-18T13:11:53;25.20;99.90
23719;DHT22;43322;52.230;5.702;2023-09-18T13:14:20;25.10;99.90
23719;DHT22;43322;52.230;5.702;2023-09-18T13:16:48;24.40;99.90
23719;DHT22;43322;52.230;5.702;2023-09-18T13:19:15;24.20;99.90
23719;DHT22;43322;52.230;5.702;2023-09-18T13:21:46;24.00;99.90
23719;DHT22;43322;52.230;5.702;2023-09-18T13:24:25;23.90;99.90
23719;DHT22;43322;52.230;5.702;2023-09-18T13:26:52;23.90;99.90
23719;DHT22;43322;52.230;5.702;2023-09-18T13:29:19;23.70;99.90
23719;DHT22;43322;52.230;5.702;2023-09-18T13:31:47;23.70;99.90
23719;DHT22;43322;52.230;5.702;2023-09-18T13:34:15;23.50;99.90
23719;DHT22;43322;52.230;5.702;2023-09-18T13:36:43;23.40;99.90
23719;DHT22;43322;52.230;5.702;2023-09-18T13:39:11;23.10;99.90
23719;DHT22;43322;52.230;5.702;2023-09-18T13:41:38;22.90;99.90
23719;DHT22;43322;52.230;5.702;2023-09-18T13:44:05;22.90;99.90
23719;DHT22;43322;52.230;5.702;2023-09-18T13:46:32;22.90;99.90
23719;DHT22;43322;52.230;5.702;2023-09-18T13:49:03;22.90;99.90
23719;DHT22;43322;52.230;5.702;2023-09-18T13:51:30;22.70;99.90
23719;DHT22;43322;52.230;5.702;2023-09-18T13:53:57;22.70;99.90
23719;DHT22;43322;52.230;5.702;2023-09-18T13:56:24;22.50;99.90
23719;DHT22;43322;52.230;5.702;2023-09-18T13:58:53;22.50;99.90
23719;DHT22;43322;52.230;5.702;2023-09-18T14:01:21;22.40;99.90
23719;DHT22;43322;52.230;5.702;2023-09-18T14:03:47;22.50;99.90
23719;DHT22;43322;52.230;5.702;2023-09-18T14:06:17;22.50;99.90
23719;DHT22;43322;52.230;5.702;2023-09-18T14:08:44;22.50;99.90
23719;DHT22;43322;52.230;5.702;2023-09-18T14:11:11;22.50;99.90
23719;DHT22;43322;52.230;5.702;2023-09-18T14:13:37;22.50;99.90
23719;DHT22;43322;52.230;5.702;2023-09-18T14:16:04;22.50;99.90
23719;DHT22;43322;52.230;5.702;2023-09-18T14:18:31;22.40;99.90
23719;DHT22;43322;52.230;5.702;2023-09-18T14:20:58;22.40;99.90
23719;DHT22;43322;52.230;5.702;2023-09-18T14:23:26;22.40;99.90
23719;DHT22;43322;52.230;5.702;2023-09-18T14:25:53;22.50;99.90
23719;DHT22;43322;52.230;5.702;2023-09-18T14:28:20;22.50;99.90
23719;DHT22;43322;52.230;5.702;2023-09-18T14:30:47;22.40;99.90
23719;DHT22;43322;52.230;5.702;2023-09-18T14:33:14;22.40;99.90
23719;DHT22;43322;52.230;5.702;2023-09-18T14:35:40;22.30;99.90
23719;DHT22;43322;52.230;5.702;2023-09-18T14:38:07;22.20;99.90
23719;DHT22;43322;52.230;5.702;2023-09-18T14:40:36;22.10;99.90
23719;DHT22;43322;52.230;5.702;2023-09-18T14:43:03;22.10;99.90
23719;DHT22;43322;52.230;5.702;2023-09-18T14:45:30;22.10;99.90
23719;DHT22;43322;52.230;5.702;2023-09-18T14:47:57;22.10;99.90
23719;DHT22;43322;52.230;5.702;2023-09-18T14:50:24;22.10;99.90
23719;DHT22;43322;52.230;5.702;2023-09-18T14:52:50;22.00;99.90
23719;DHT22;43322;52.230;5.702;2023-09-18T14:55:17;22.10;99.90
23719;DHT22;43322;52.230;5.702;2023-09-18T14:57:45;22.10;99.90
23719;DHT22;43322;52.230;5.702;2023-09-18T15:00:12;22.00;99.90
23719;DHT22;43322;52.230;5.702;2023-09-18T15:02:39;21.80;99.90
23719;DHT22;43322;52.230;5.702;2023-09-18T15:05:06;21.70;99.90
23719;DHT22;43322;52.230;5.702;2023-09-18T15:07:37;21.60;99.90
23719;DHT22;43322;52.230;5.702;2023-09-18T15:10:05;21.70;99.90
23719;DHT22;43322;52.230;5.702;2023-09-18T15:12:33;21.50;99.90
23719;DHT22;43322;52.230;5.702;2023-09-18T15:15:02;21.50;99.90
23719;DHT22;43322;52.230;5.702;2023-09-18T15:17:28;21.60;99.90
23719;DHT22;43322;52.230;5.702;2023-09-18T15:19:55;21.50;99.90
23719;DHT22;43322;52.230;5.702;2023-09-18T15:22:23;21.40;99.90
23719;DHT22;43322;52.230;5.702;2023-09-18T15:24:50;21.30;99.90
23719;DHT22;43322;52.230;5.702;2023-09-18T15:27:17;21.20;99.90
23719;DHT22;43322;52.230;5.702;2023-09-18T15:29:43;21.10;99.90
23719;DHT22;43322;52.230;5.702;2023-09-18T15:32:11;20.90;99.90
23719;DHT22;43322;52.230;5.702;2023-09-18T15:34:38;20.70;99.90
23719;DHT22;43322;52.230;5.702;2023-09-18T15:37:05;20.50;99.90